Time;durP1;ratioP1;P1;durP2;ratioP2;P2;SDS_P1;SDS_P2;PMS_P1;PMS_P2;Temp;Humidity;BMP_temperature;BMP_pressure;BME280_temperature;BME280_humidity;BME280_pressure;Samples;Min_cycle;Max_cycle;Signal;HPM_P1;HPM_P2
2021/06/05 00:00:51;;;;;;;5.32;4.28;;;;;;;16.07;77.23;96070.78;5010794;28;20618;-73
2021/06/05 00:03:17;;;;;;;6.43;4.10;;;;;;;16.12;76.79;96080.78;5012407;28;20186;-73
2021/06/05 00:06:01;;;;;;;5.50;4.25;;;;;;;16.07;76.09;96070.78;5012389;28;20211;-73
2021/06/05 00:08:29;;;;;;;4.13;3.10;;;;;;;16.08;76.04;96075.06;4994936;28;20184;-73
2021/06/05 00:11:03;;;;;;;4.60;3.22;;;;;;;16.03;75.32;96066.88;5009842;28;20183;-73
2021/06/05 00:13:34;;;;;;;5.28;2.90;;;;;;;16.04;74.55;96065.06;4991179;28;20196;-73
2021/06/05 00:16:01;;;;;;;3.47;3.17;;;;;;;16.00;74.44;96066.41;5010519;28;20183;-73
2021/06/05 00:18:28;;;;;;;5.78;2.80;;;;;;;16.03;74.28;96059.03;5012331;28;20278;-73
2021/06/05 00:20:54;;;;;;;6.07;2.70;;;;;;;16.06;74.09;96055.25;5009346;28;20237;-74
2021/06/05 00:23:21;;;;;;;5.18;2.70;;;;;;;16.06;72.35;96058.66;5010892;28;20182;-72
2021/06/05 00:25:47;;;;;;;3.92;2.22;;;;;;;16.03;72.58;96053.78;5010596;28;20179;-73
2021/06/05 00:28:13;;;;;;;3.25;2.40;;;;;;;16.00;72.67;96042.84;5010997;28;20190;-73
2021/06/05 00:30:38;;;;;;;3.95;2.10;;;;;;;16.07;71.91;96044.59;5009323;28;20216;-72
2021/06/05 00:33:05;;;;;;;2.55;2.17;;;;;;;16.08;71.77;96033.16;5026995;28;20179;-73
2021/06/05 00:35:31;;;;;;;2.47;2.22;;;;;;;15.97;72.32;96038.72;4994290;28;20646;-73
2021/06/05 00:37:56;;;;;;;3.78;2.22;;;;;;;15.97;71.74;96038.72;5010822;28;20202;-73
2021/06/05 00:40:24;;;;;;;3.00;2.05;;;;;;;15.97;71.71;96030.88;5011646;28;20183;-73
2021/06/05 00:42:50;;;;;;;2.30;1.80;;;;;;;15.97;71.73;96023.00;5009374;28;20183;-73
2021/06/05 00:45:17;;;;;;;2.38;2.17;;;;;;;15.91;71.96;96031.56;5010303;28;20699;-72
2021/06/05 00:47:42;;;;;;;4.25;2.13;;;;;;;15.87;72.18;96027.63;5010466;28;20677;-73
2021/06/05 00:50:10;;;;;;;2.28;2.08;;;;;;;15.85;72.46;96027.00;5010497;28;20183;-73
2021/06/05 00:52:36;;;;;;;2.35;2.15;;;;;;;15.81;72.62;96026.53;5009067;28;20283;-72
2021/06/05 00:55:03;;;;;;;3.10;2.05;;;;;;;15.79;72.87;96025.84;5010304;28;20203;-73
2021/06/05 00:57:29;;;;;;;3.08;2.03;;;;;;;15.79;72.91;96020.63;5010014;28;20187;-74
2021/06/05 00:59:54;;;;;;;2.17;2.08;;;;;;;15.79;72.76;96023.25;5011698;28;20554;-73
2021/06/05 01:02:20;;;;;;;2.88;2.20;;;;;;;15.81;72.70;96026.53;5009370;28;20187;-71
2021/06/05 01:04:45;;;;;;;4.28;2.10;;;;;;;15.73;73.49;96023.13;5009005;28;20203;-73
2021/06/05 01:07:17;;;;;;;3.20;2.03;;;;;;;15.72;73.51;96024.06;5010348;28;20181;-73
2021/06/05 01:09:58;;;;;;;2.63;2.20;;;;;;;15.73;73.45;96028.34;5011624;28;20667;-72
2021/06/05 01:12:49;;;;;;;2.78;2.03;;;;;;;15.69;73.39;96030.47;5010454;28;20186;-73
2021/06/05 01:15:16;;;;;;;2.40;2.20;;;;;;;15.65;74.09;96033.59;4997792;28;20215;-73
2021/06/05 01:17:44;;;;;;;4.00;2.40;;;;;;;15.64;74.22;96031.97;5011477;28;20540;-73
2021/06/05 01:20:18;;;;;;;5.47;2.85;;;;;;;15.55;74.75;96029.34;5010312;28;20178;-73
2021/06/05 01:22:57;;;;;;;4.30;2.90;;;;;;;15.50;75.70;96044.72;4993980;28;20183;-72
2021/06/05 01:25:29;;;;;;;5.05;3.15;;;;;;;15.38;77.10;96046.03;4992364;28;20203;-72
2021/06/05 01:27:58;;;;;;;3.92;2.67;;;;;;;15.41;77.07;96043.09;5010402;28;20175;-72
2021/06/05 01:30:35;;;;;;;5.03;2.17;;;;;;;15.39;76.96;96034.59;4993530;28;20226;-72
2021/06/05 01:33:00;;;;;;;4.18;2.30;;;;;;;15.30;77.13;96041.63;5010198;28;20646;-73
2021/06/05 01:35:27;;;;;;;2.92;2.20;;;;;;;15.21;76.57;96037.38;5008968;28;20266;-73
2021/06/05 01:37:54;;;;;;;4.70;2.20;;;;;;;15.10;77.46;96036.88;5010067;28;20180;-72
2021/06/05 01:40:20;;;;;;;2.78;2.40;;;;;;;15.07;77.69;96040.63;5009939;28;20803;-73
2021/06/05 01:42:46;;;;;;;3.33;2.15;;;;;;;15.09;76.09;96037.84;5010055;28;20272;-72
2021/06/05 01:45:16;;;;;;;2.88;1.63;;;;;;;15.16;74.20;96034.44;4991576;28;20191;-71
2021/06/05 01:47:42;;;;;;;3.47;2.45;;;;;;;15.20;74.61;96034.94;4992850;28;20184;-73
2021/06/05 01:50:09;;;;;;;3.55;2.05;;;;;;;15.13;74.88;96042.63;4993545;28;20725;-73
2021/06/05 01:52:35;;;;;;;4.97;2.20;;;;;;;15.22;72.86;96033.78;5009732;28;20185;-73
2021/06/05 01:55:17;;;;;;;3.22;1.60;;;;;;;15.27;72.06;96043.75;5009877;28;20716;-73
2021/06/05 01:57:46;;;;;;;3.30;1.88;;;;;;;15.31;72.04;96039.81;5008725;28;20189;-73
2021/06/05 02:00:20;;;;;;;2.07;1.30;;;;;;;15.32;71.75;96048.50;5011209;28;20214;-73
2021/06/05 02:02:45;;;;;;;2.97;1.50;;;;;;;15.26;72.14;96034.25;5009924;28;20632;-73
2021/06/05 02:05:11;;;;;;;2.55;1.70;;;;;;;15.29;71.77;96040.00;5010959;28;20194;-73
2021/06/05 02:07:36;;;;;;;3.10;1.40;;;;;;;15.33;71.74;96047.50;5008766;28;20197;-73
2021/06/05 02:10:08;;;;;;;2.72;1.45;;;;;;;15.29;72.19;96037.38;5012475;28;20183;-73
2021/06/05 02:12:33;;;;;;;1.83;1.38;;;;;;;15.27;72.39;96030.66;5012996;28;20694;-73
2021/06/05 02:15:04;;;;;;;2.30;1.70;;;;;;;15.26;72.80;96031.66;5013828;28;20215;-73
2021/06/05 02:17:32;;;;;;;3.53;1.88;;;;;;;15.25;72.81;96030.00;4994559;28;20184;-72
2021/06/05 02:20:10;;;;;;;1.65;1.55;;;;;;;15.19;72.95;96023.63;5012873;28;20224;-73
2021/06/05 02:22:36;;;;;;;2.08;1.52;;;;;;;15.18;73.57;96016.75;5012930;28;20183;-73
2021/06/05 02:25:05;;;;;;;2.67;1.60;;;;;;;15.18;73.72;96011.53;5013896;28;20257;-73
2021/06/05 02:27:31;;;;;;;3.38;1.70;;;;;;;15.18;73.78;96008.91;5012967;28;20191;-73
2021/06/05 02:29:57;;;;;;;3.20;1.40;;;;;;;15.22;72.63;96006.81;4995266;28;20558;-73
2021/06/05 02:32:26;;;;;;;5.05;1.55;;;;;;;15.16;72.98;96000.41;4993139;28;20195;-73
2021/06/05 02:34:53;;;;;;;4.10;1.60;;;;;;;15.18;73.16;96002.88;5025917;28;20219;-72
2021/06/05 02:37:22;;;;;;;3.78;1.60;;;;;;;15.13;73.63;95992.91;5026087;28;20168;-73
2021/06/05 02:39:47;;;;;;;1.80;1.63;;;;;;;15.06;73.84;95999.78;5011469;28;20269;-74
2021/06/05 02:42:18;;;;;;;1.67;1.42;;;;;;;15.08;73.59;95992.56;5011157;28;20203;-73
2021/06/05 02:44:47;;;;;;;1.83;1.40;;;;;;;15.05;73.53;95986.88;5012728;28;20191;-72
2021/06/05 02:47:12;;;;;;;3.83;1.35;;;;;;;14.97;73.88;95982.47;5012710;28;20178;-74
2021/06/05 02:49:38;;;;;;;3.85;1.75;;;;;;;14.94;74.41;95981.00;5011702;28;20179;-73
2021/06/05 02:52:28;;;;;;;2.42;1.23;;;;;;;14.91;74.40;95983.91;5012128;28;20201;-73
2021/06/05 02:54:55;;;;;;;3.63;1.67;;;;;;;14.84;74.80;95987.34;5012600;28;20210;-72
2021/06/05 02:57:21;;;;;;;2.95;1.60;;;;;;;14.85;74.02;95989.00;5012523;28;20179;-73
2021/06/05 02:59:46;;;;;;;4.70;1.63;;;;;;;14.82;74.23;95992.75;5011595;28;20186;-73
2021/06/05 03:02:11;;;;;;;2.97;1.70;;;;;;;14.79;74.18;95993.06;5010725;28;20194;-73
2021/06/05 03:04:37;;;;;;;2.63;1.50;;;;;;;14.69;74.84;95989.81;5012277;28;20598;-73
2021/06/05 03:07:02;;;;;;;3.03;1.63;;;;;;;14.66;75.26;95992.72;5013509;28;20178;-73
2021/06/05 03:09:27;;;;;;;2.10;1.90;;;;;;;14.64;75.56;95997.31;5012265;28;20183;-73
2021/06/05 03:11:53;;;;;;;3.63;1.77;;;;;;;14.56;75.82;95997.28;5011119;28;20337;-73
2021/06/05 03:14:18;;;;;;;2.73;1.67;;;;;;;14.52;76.43;95996.00;5013204;28;20682;-73
2021/06/05 03:16:44;;;;;;;3.15;1.40;;;;;;;14.54;76.27;95996.63;5013353;28;20554;-73
2021/06/05 03:19:09;;;;;;;3.17;1.85;;;;;;;14.47;76.64;95988.63;5011627;28;20769;-73
2021/06/05 03:21:34;;;;;;;2.80;2.00;;;;;;;14.35;77.17;95995.91;5009282;28;20196;-73
2021/06/05 03:23:59;;;;;;;3.08;1.50;;;;;;;14.25;77.46;95995.25;5011736;28;20187;-72
2021/06/05 03:26:25;;;;;;;3.00;2.03;;;;;;;14.25;77.76;95984.78;5012955;28;20175;-72
2021/06/05 03:28:50;;;;;;;4.55;1.80;;;;;;;14.23;77.94;95989.38;5011947;28;20175;-73
2021/06/05 03:31:19;;;;;;;2.00;1.80;;;;;;;14.20;77.83;95987.06;5011474;28;20734;-73
2021/06/05 03:33:45;;;;;;;2.23;1.70;;;;;;;14.13;78.49;95984.28;5010390;28;20587;-73
2021/06/05 03:36:11;;;;;;;3.17;1.88;;;;;;;14.12;78.18;95987.03;5011777;28;20175;-73
2021/06/05 03:38:36;;;;;;;1.80;1.60;;;;;;;14.08;77.81;95981.31;5011738;28;20234;-73
2021/06/05 03:41:01;;;;;;;2.33;1.50;;;;;;;14.20;76.72;95979.22;5012772;28;20262;-72
2021/06/05 03:43:27;;;;;;;2.27;1.40;;;;;;;14.18;77.12;95982.00;5010345;28;20179;-73
2021/06/05 03:45:52;;;;;;;2.67;1.83;;;;;;;14.12;76.92;95979.19;5011377;28;20182;-73
2021/06/05 03:48:18;;;;;;;2.75;1.67;;;;;;;14.18;76.73;95975.97;5011614;28;20210;-72
2021/06/05 03:50:46;;;;;;;1.87;1.13;;;;;;;14.14;76.47;95979.88;5011359;28;20175;-73
2021/06/05 03:53:12;;;;;;;1.40;1.30;;;;;;;14.12;76.44;95976.59;5010320;28;20182;-73
2021/06/05 03:55:38;;;;;;;3.00;1.70;;;;;;;14.22;75.98;95979.06;5012382;28;20632;-72
2021/06/05 03:58:04;;;;;;;1.77;1.50;;;;;;;14.19;76.12;95977.59;5011395;28;20183;-73
2021/06/05 04:00:35;;;;;;;2.97;1.83;;;;;;;14.18;75.87;95983.78;4994605;28;20258;-73
2021/06/05 04:03:01;;;;;;;3.05;1.55;;;;;;;14.16;76.01;95978.72;5011383;28;20655;-73
2021/06/05 04:05:27;;;;;;;4.70;1.60;;;;;;;14.18;75.63;95979.38;5009972;28;20199;-73
2021/06/05 04:07:52;;;;;;;4.43;1.42;;;;;;;14.23;74.89;95975.50;5011103;28;20182;-73
2021/06/05 04:10:18;;;;;;;2.78;1.40;;;;;;;14.26;75.02;95975.97;5010937;28;20198;-73
2021/06/05 04:12:44;;;;;;;3.90;1.65;;;;;;;14.34;74.53;95981.22;5010962;28;20175;-73
2021/06/05 04:15:13;;;;;;;1.73;1.30;;;;;;;14.41;74.34;95982.22;5009841;28;20578;-73
2021/06/05 04:17:38;;;;;;;1.80;1.70;;;;;;;14.48;74.64;95971.94;5027313;28;20190;-73
2021/06/05 04:20:09;;;;;;;1.93;1.40;;;;;;;14.51;74.57;95976.06;5010952;28;20167;-73
2021/06/05 04:22:35;;;;;;;3.47;1.67;;;;;;;14.49;74.94;95972.78;5010692;28;20206;-72
2021/06/05 04:25:00;;;;;;;3.63;1.60;;;;;;;14.47;75.20;95974.72;5009373;28;20289;-73
2021/06/05 04:27:27;;;;;;;2.10;1.50;;;;;;;14.46;75.67;95973.91;5010702;28;20187;-73
2021/06/05 04:29:52;;;;;;;2.17;1.50;;;;;;;14.51;75.41;95981.28;5010820;28;20182;-73
2021/06/05 04:32:18;;;;;;;3.05;1.30;;;;;;;14.54;75.50;95986.19;5009774;28;20662;-73
2021/06/05 04:34:43;;;;;;;2.20;1.73;;;;;;;14.63;75.09;95980.00;5010698;28;20581;-73
2021/06/05 04:37:09;;;;;;;2.97;1.40;;;;;;;14.71;74.84;95975.59;5009739;28;20284;-73
2021/06/05 04:39:34;;;;;;;1.45;1.30;;;;;;;14.89;74.39;95979.84;4994140;28;20270;-73
2021/06/05 04:42:01;;;;;;;4.32;1.70;;;;;;;15.32;73.17;95980.47;5010660;28;20191;-73
2021/06/05 04:44:26;;;;;;;2.28;1.40;;;;;;;16.34;69.31;95982.22;5011867;28;20562;-73
2021/06/05 04:46:52;;;;;;;3.80;1.27;;;;;;;18.47;61.59;95987.13;5007189;28;20186;-73
2021/06/05 04:49:17;;;;;;;1.92;1.10;;;;;;;20.79;55.35;95997.44;5010505;28;20183;-73
2021/06/05 04:51:42;;;;;;;1.70;1.30;;;;;;;22.45;50.79;96001.56;4993875;28;20183;-74
2021/06/05 04:54:08;;;;;;;1.67;1.38;;;;;;;23.07;47.63;96009.81;5010360;28;20242;-72
2021/06/05 04:56:43;;;;;;;2.17;1.00;;;;;;;24.44;44.11;96005.28;5010581;28;20175;-72
2021/06/05 04:59:11;;;;;;;2.47;1.02;;;;;;;24.96;42.86;96009.06;5009272;28;20191;-72
2021/06/05 05:01:37;;;;;;;2.35;0.90;;;;;;;25.38;41.12;96003.78;5009390;28;20649;-72
2021/06/05 05:04:02;;;;;;;2.63;1.08;;;;;;;26.01;39.62;96007.63;4993910;28;20261;-72
2021/06/05 05:06:28;;;;;;;1.08;0.80;;;;;;;26.46;38.98;96013.13;4994062;28;20179;-73
2021/06/05 05:08:54;;;;;;;2.53;0.80;;;;;;;27.75;36.39;96013.31;5009254;28;20702;-73
2021/06/05 05:11:20;;;;;;;3.17;1.05;;;;;;;28.19;35.06;96010.72;5010288;28;20547;-73
2021/06/05 05:13:45;;;;;;;1.70;0.93;;;;;;;27.37;36.21;96016.66;5010333;28;20215;-72
2021/06/05 05:16:10;;;;;;;2.53;0.90;;;;;;;26.94;36.39;96014.56;4993971;28;20214;-73
2021/06/05 05:18:38;;;;;;;1.27;0.85;;;;;;;27.02;37.71;96017.63;5006933;28;20279;-73
2021/06/05 05:21:05;;;;;;;2.97;1.20;;;;;;;27.07;36.58;96020.44;4993616;28;20206;-72
2021/06/05 05:23:33;;;;;;;3.80;0.90;;;;;;;25.05;39.83;96025.53;5010137;28;20388;-71
2021/06/05 05:26:00;;;;;;;2.40;0.80;;;;;;;25.02;40.95;96020.66;5010069;28;20190;-72
2021/06/05 05:28:26;;;;;;;1.75;1.00;;;;;;;24.02;42.55;96016.53;5010275;28;20644;-73
2021/06/05 05:30:54;;;;;;;2.35;0.90;;;;;;;22.83;43.44;96012.16;5007989;28;20202;-72
2021/06/05 05:33:21;;;;;;;2.00;1.10;;;;;;;23.51;42.42;96018.63;4993437;28;20301;-73
2021/06/05 05:35:49;;;;;;;3.00;1.10;;;;;;;24.09;41.94;96028.91;4993775;28;20670;-72
2021/06/05 05:38:15;;;;;;;1.15;0.95;;;;;;;24.02;41.86;96029.78;5010220;28;20171;-72
2021/06/05 05:40:42;;;;;;;1.35;1.17;;;;;;;23.17;43.41;96033.97;5008742;28;20180;-73
2021/06/05 05:43:08;;;;;;;1.33;0.95;;;;;;;22.11;46.16;96020.41;5011515;28;20202;-72
2021/06/05 05:45:33;;;;;;;2.63;1.02;;;;;;;21.54;49.01;96029.81;5013922;28;20195;-73
2021/06/05 05:48:00;;;;;;;3.08;1.00;;;;;;;21.37;48.33;96029.41;5013847;28;20314;-73
2021/06/05 05:50:26;;;;;;;2.22;1.10;;;;;;;21.09;50.63;96033.00;5011355;28;20176;-74
2021/06/05 05:52:52;;;;;;;2.10;1.23;;;;;;;20.78;50.74;96030.94;4995846;28;20282;-73
2021/06/05 05:55:17;;;;;;;2.65;1.30;;;;;;;20.72;51.54;96039.63;5014809;28;20984;-73
2021/06/05 05:57:43;;;;;;;2.22;1.00;;;;;;;20.34;51.83;96034.81;5013680;28;20183;-73
2021/06/05 06:00:12;;;;;;;2.53;1.10;;;;;;;21.65;49.50;96037.94;5013541;28;20258;-72
2021/06/05 06:02:39;;;;;;;1.13;1.02;;;;;;;21.51;49.48;96035.50;5012052;28;20190;-72
2021/06/05 06:05:06;;;;;;;2.63;1.23;;;;;;;20.91;51.39;96044.16;5013333;28;20221;-72
2021/06/05 06:07:31;;;;;;;1.80;1.00;;;;;;;20.78;53.40;96046.78;5013445;28;20195;-73
2021/06/05 06:09:56;;;;;;;1.25;1.10;;;;;;;20.69;53.48;96039.22;5013299;28;20179;-73
2021/06/05 06:12:22;;;;;;;2.28;1.33;;;;;;;20.49;54.35;96041.78;5010839;28;20675;-73
2021/06/05 06:14:47;;;;;;;2.00;0.90;;;;;;;20.97;52.84;96053.09;5012066;28;20254;-73
2021/06/05 06:17:12;;;;;;;1.52;0.80;;;;;;;20.92;53.22;96052.88;5014249;28;20270;-73
2021/06/05 06:19:38;;;;;;;1.98;1.02;;;;;;;20.98;52.88;96046.81;5013353;28;20183;-73
2021/06/05 06:22:04;;;;;;;2.15;1.20;;;;;;;21.17;52.46;96051.31;5012917;28;20191;-72
2021/06/05 06:24:30;;;;;;;1.00;0.90;;;;;;;20.97;53.30;96053.09;5011066;28;20222;-72
2021/06/05 06:26:55;;;;;;;2.78;1.17;;;;;;;21.02;53.55;96053.31;5012536;28;20222;-73
2021/06/05 06:29:28;;;;;;;1.23;1.05;;;;;;;21.19;52.95;96059.03;5013065;28;20179;-73
2021/06/05 06:31:53;;;;;;;3.40;1.13;;;;;;;21.35;52.95;96057.84;5012789;28;20268;-72
2021/06/05 06:34:18;;;;;;;2.17;1.13;;;;;;;21.76;52.60;96055.03;5012551;28;20583;-74
2021/06/05 06:36:44;;;;;;;2.47;1.25;;;;;;;21.62;52.79;96053.38;5014095;28;20206;-73
2021/06/05 06:39:11;;;;;;;1.27;0.95;;;;;;;21.69;51.63;96060.31;5012258;28;20199;-73
2021/06/05 06:41:36;;;;;;;1.48;1.00;;;;;;;21.30;53.32;96066.41;5012073;28;20175;-73
2021/06/05 06:44:04;;;;;;;3.97;1.10;;;;;;;20.87;54.49;96065.88;5011012;28;20572;-72
2021/06/05 06:46:34;;;;;;;1.83;0.98;;;;;;;20.86;54.94;96061.63;4995357;28;20265;-72
2021/06/05 06:49:04;;;;;;;1.05;0.88;;;;;;;20.48;55.93;96072.63;5012687;28;20175;-72
2021/06/05 06:51:30;;;;;;;2.58;1.00;;;;;;;20.74;54.90;96055.28;4995610;28;20171;-73
2021/06/05 06:53:56;;;;;;;1.73;1.10;;;;;;;20.76;55.66;96063.78;5011622;28;20230;-73
2021/06/05 06:56:22;;;;;;;0.98;0.85;;;;;;;21.48;53.59;96063.16;5011061;28;20655;-73
2021/06/05 06:58:48;;;;;;;1.25;0.75;;;;;;;23.39;48.79;96060.91;5012524;28;20175;-73
2021/06/05 07:01:14;;;;;;;2.22;0.75;;;;;;;24.79;44.29;96063.84;5012253;28;20206;-73
2021/06/05 07:03:39;;;;;;;1.05;0.63;;;;;;;25.28;43.04;96073.44;5011839;28;20655;-73
2021/06/05 07:06:05;;;;;;;0.75;0.60;;;;;;;24.38;44.86;96070.66;5009647;28;20180;-73
2021/06/05 07:08:33;;;;;;;1.33;0.60;;;;;;;25.49;42.69;96079.25;4994920;28;20183;-73
2021/06/05 07:11:07;;;;;;;0.77;0.70;;;;;;;25.68;42.96;96068.31;5011711;28;20257;-72
2021/06/05 07:13:33;;;;;;;2.03;0.85;;;;;;;25.73;42.32;96072.97;5012023;28;20205;-72
2021/06/05 07:15:59;;;;;;;1.90;0.70;;;;;;;24.53;44.41;96067.66;5009750;28;20590;-73
2021/06/05 07:18:26;;;;;;;1.77;0.70;;;;;;;24.10;46.44;96067.69;5001752;28;20187;-73
2021/06/05 07:20:52;;;;;;;0.70;0.70;;;;;;;23.82;47.08;96071.59;4994499;28;20179;-73
2021/06/05 07:23:19;;;;;;;0.75;0.55;;;;;;;22.70;49.88;96070.44;4992519;28;20168;-73
2021/06/05 07:25:45;;;;;;;3.63;0.70;;;;;;;21.97;51.90;96070.63;4993430;28;20304;-72
2021/06/05 07:28:31;;;;;;;3.20;0.57;;;;;;;21.67;54.45;96074.75;5007021;28;20194;-73
2021/06/05 07:30:58;;;;;;;0.88;0.80;;;;;;;21.51;54.41;96080.44;5011477;28;20197;-72
2021/06/05 07:33:24;;;;;;;0.70;0.60;;;;;;;21.25;54.95;96087.28;5011516;28;20209;-73
2021/06/05 07:35:51;;;;;;;3.13;0.90;;;;;;;21.26;55.14;96085.44;5011674;28;20175;-73
2021/06/05 07:38:17;;;;;;;2.15;0.80;;;;;;;20.50;56.91;96081.19;5010900;28;20195;-73
2021/06/05 07:40:44;;;;;;;1.30;0.68;;;;;;;20.51;57.11;96088.09;5011398;28;20233;-73
2021/06/05 07:43:10;;;;;;;2.88;0.65;;;;;;;20.17;58.30;96085.44;5011730;28;20183;-73
2021/06/05 07:45:36;;;;;;;1.40;0.70;;;;;;;20.05;58.94;96080.72;5011580;28;20191;-74
2021/06/05 07:48:01;;;;;;;2.85;0.90;;;;;;;19.78;60.37;96087.59;5007921;28;20192;-73
2021/06/05 07:50:27;;;;;;;1.63;0.80;;;;;;;19.58;60.18;96085.81;5010811;28;20187;-73
2021/06/05 07:52:52;;;;;;;1.13;0.70;;;;;;;19.42;60.65;96085.03;5010888;28;20242;-73
2021/06/05 07:55:18;;;;;;;0.90;0.68;;;;;;;19.24;61.06;96092.59;5011030;28;20211;-74
2021/06/05 07:57:44;;;;;;;1.48;0.80;;;;;;;19.19;61.41;96089.72;4993938;28;20193;-75
2021/06/05 08:00:16;;;;;;;1.48;0.73;;;;;;;19.03;62.11;96089.94;4994518;28;20186;-74
2021/06/05 08:02:41;;;;;;;0.70;0.70;;;;;;;18.84;62.59;96086.91;5011203;28;20635;-74
2021/06/05 08:05:08;;;;;;;1.25;0.70;;;;;;;18.98;61.78;96094.94;5011256;28;20196;-74
2021/06/05 08:07:33;;;;;;;1.00;0.80;;;;;;;18.64;62.86;96098.97;5011036;28;20642;-75
2021/06/05 08:09:58;;;;;;;1.63;1.00;;;;;;;18.65;64.15;96101.47;5012205;28;20233;-74
2021/06/05 08:12:24;;;;;;;1.73;0.80;;;;;;;18.66;64.17;96108.38;5010347;28;20267;-75
2021/06/05 08:14:49;;;;;;;0.70;0.70;;;;;;;18.46;66.02;96112.50;4994196;28;20207;-74
2021/06/05 08:17:14;;;;;;;1.60;0.73;;;;;;;18.35;66.65;96108.53;4994475;28;20179;-73
2021/06/05 08:19:40;;;;;;;2.28;0.60;;;;;;;18.19;67.17;96106.09;5009635;28;20594;-74
2021/06/05 08:22:06;;;;;;;1.58;0.80;;;;;;;18.27;67.90;96110.44;5011807;28;20258;-74
2021/06/05 08:24:32;;;;;;;2.22;1.00;;;;;;;18.28;67.90;96112.06;5010727;28;20199;-74
2021/06/05 08:26:57;;;;;;;1.55;0.85;;;;;;;18.30;67.42;96102.22;5010926;28;20179;-74
2021/06/05 08:29:22;;;;;;;1.08;0.90;;;;;;;18.33;67.23;96113.16;5009703;28;20187;-74
2021/06/05 08:31:49;;;;;;;5.78;1.08;;;;;;;18.39;66.86;96103.75;5010403;28;20202;-74
2021/06/05 08:34:16;;;;;;;2.55;0.90;;;;;;;18.54;66.72;96107.16;5010552;28;20210;-73
2021/06/05 08:36:41;;;;;;;1.30;0.80;;;;;;;18.76;65.99;96105.44;5010825;28;20231;-74
2021/06/05 08:39:07;;;;;;;1.73;0.70;;;;;;;18.84;65.39;96101.91;5009958;28;20214;-74
2021/06/05 08:41:39;;;;;;;1.77;0.80;;;;;;;19.28;64.00;96106.19;5008898;28;20207;-76
2021/06/05 08:44:09;;;;;;;1.38;0.70;;;;;;;19.41;62.48;96101.03;5010456;28;20559;-75
2021/06/05 08:46:42;;;;;;;2.13;0.90;;;;;;;19.28;62.98;96106.19;5010671;28;20267;-76
2021/06/05 08:49:16;;;;;;;1.67;0.80;;;;;;;19.62;62.88;96108.16;5010438;28;20174;-73
2021/06/05 08:52:09;;;;;;;1.75;0.82;;;;;;;19.67;60.93;96101.31;5008906;28;20663;-73
2021/06/05 08:54:37;;;;;;;0.80;0.70;;;;;;;19.83;60.28;96092.31;4990686;28;20212;-74
2021/06/05 08:57:28;;;;;;;1.38;0.77;;;;;;;20.11;60.83;96102.03;4991994;28;20262;-73
2021/06/05 08:59:55;;;;;;;1.02;0.88;;;;;;;20.52;59.43;96100.25;5007932;28;20211;-73
2021/06/05 09:02:22;;;;;;;1.52;1.00;;;;;;;20.28;58.13;96098.88;5009040;28;20254;-73
2021/06/05 09:04:48;;;;;;;1.80;1.00;;;;;;;20.55;57.89;96104.31;5010190;28;20211;-72
2021/06/05 09:07:15;;;;;;;1.60;1.00;;;;;;;20.33;58.49;96103.59;5010101;28;20245;-73
2021/06/05 09:09:42;;;;;;;2.90;1.10;;;;;;;20.67;58.17;96104.56;5011704;28;20180;-72
2021/06/05 09:12:08;;;;;;;1.45;1.20;;;;;;;20.85;57.85;96100.41;4992497;28;20206;-73
2021/06/05 09:14:34;;;;;;;1.63;1.10;;;;;;;20.80;58.24;96107.28;5009922;28;20650;-72
2021/06/05 09:17:03;;;;;;;1.35;0.80;;;;;;;20.84;57.30;96103.22;5010238;28;20214;-73
2021/06/05 09:19:31;;;;;;;1.40;1.00;;;;;;;20.77;57.46;96099.75;5013987;28;20703;-73
2021/06/05 09:22:15;;;;;;;1.23;0.95;;;;;;;20.66;56.82;96106.38;5012818;28;20274;-72
2021/06/05 09:24:42;;;;;;;1.55;0.82;;;;;;;20.48;58.13;96104.28;5009744;28;20202;-73
2021/06/05 09:27:16;;;;;;;1.35;1.20;;;;;;;19.91;60.97;96107.16;5030505;28;20183;-73
2021/06/05 09:29:50;;;;;;;1.80;1.20;;;;;;;19.27;61.69;96102.75;5015375;28;20186;-73
2021/06/05 09:32:29;;;;;;;2.15;1.10;;;;;;;19.45;61.42;96103.13;5014813;28;20198;-74
2021/06/05 09:35:20;;;;;;;11.48;2.10;;;;;;;19.60;63.98;96104.88;5014809;28;20766;-73
2021/06/05 09:37:53;;;;;;;29.23;3.88;;;;;;;19.96;62.31;96110.03;4994458;28;20224;-73
2021/06/05 09:40:18;;;;;;;14.00;2.38;;;;;;;19.75;63.10;96109.06;5010011;28;20179;-73
2021/06/05 09:42:47;;;;;;;3.47;1.10;;;;;;;19.63;62.07;96107.16;4995462;28;20168;-75
2021/06/05 09:45:30;;;;;;;4.28;1.30;;;;;;;19.84;62.92;96101.84;5012159;28;20202;-73
2021/06/05 09:48:17;;;;;;;2.65;1.10;;;;;;;19.87;62.29;96112.00;5013759;28;20554;-73
2021/06/05 09:50:45;;;;;;;1.65;1.25;;;;;;;19.85;63.20;96108.75;5014500;28;20175;-72
2021/06/05 09:53:37;;;;;;;5.03;1.58;;;;;;;20.13;63.57;96118.44;5013726;28;20184;-73
2021/06/05 09:56:26;;;;;;;5.30;1.63;;;;;;;20.74;62.11;96111.50;5011899;28;20580;-73
2021/06/05 09:59:05;;;;;;;29.25;3.88;;;;;;;20.84;61.14;96113.78;5013574;28;20790;-73
2021/06/05 10:01:33;;;;;;;3.92;1.40;;;;;;;20.84;61.06;96114.59;5014496;28;20214;-73
2021/06/05 10:04:07;;;;;;;1.45;1.23;;;;;;;20.61;60.81;96114.91;4997011;28;20203;-73
2021/06/05 10:06:42;;;;;;;1.65;1.23;;;;;;;20.45;61.50;96111.78;5012455;28;20232;-73
2021/06/05 10:09:26;;;;;;;4.00;2.03;;;;;;;19.96;61.43;96110.03;5013418;28;20276;-75
2021/06/05 10:12:04;;;;;;;1.73;1.27;;;;;;;20.03;62.97;96110.88;5013690;28;20183;-73
2021/06/05 10:14:40;;;;;;;1.52;1.35;;;;;;;19.99;63.82;96115.75;4996761;28;20234;-72
2021/06/05 10:17:09;;;;;;;4.43;1.88;;;;;;;19.92;63.65;96114.06;5012105;28;20209;-73
2021/06/05 10:19:38;;;;;;;5.60;1.50;;;;;;;19.47;65.70;96106.38;5013174;28;20179;-73
2021/06/05 10:22:05;;;;;;;3.80;1.50;;;;;;;19.45;65.57;96113.66;5012586;28;20175;-73
2021/06/05 10:24:35;;;;;;;12.02;2.17;;;;;;;19.64;66.00;96108.78;5013059;28;20577;-73
2021/06/05 10:27:07;;;;;;;1.50;1.35;;;;;;;19.69;66.47;96106.38;5012921;28;20690;-72
2021/06/05 10:29:39;;;;;;;3.95;1.33;;;;;;;19.53;64.88;96107.44;5011632;28;20203;-73
2021/06/05 10:32:08;;;;;;;2.67;1.40;;;;;;;19.46;66.14;96112.66;5012580;28;20262;-74
2021/06/05 10:34:40;;;;;;;1.30;1.20;;;;;;;19.69;66.45;96109.00;4996426;28;20274;-73
2021/06/05 10:37:09;;;;;;;3.20;1.67;;;;;;;19.37;67.48;96116.41;5011647;28;20194;-73
2021/06/05 10:39:37;;;;;;;3.83;1.40;;;;;;;19.62;67.52;96095.00;5012598;28;20233;-73
2021/06/05 10:42:22;;;;;;;4.65;1.48;;;;;;;19.64;66.46;96106.97;5012505;28;20186;-73
2021/06/05 10:44:47;;;;;;;2.17;1.30;;;;;;;19.53;66.13;96107.44;4996194;28;20234;-75
2021/06/05 10:47:35;;;;;;;1.83;1.45;;;;;;;19.64;65.98;96111.41;5012626;28;20202;-74
2021/06/05 10:50:04;;;;;;;2.90;1.42;;;;;;;19.84;66.17;96101.84;5009086;28;20191;-74
2021/06/05 10:52:33;;;;;;;1.63;1.35;;;;;;;20.16;65.78;96107.53;5028251;28;20598;-73
2021/06/05 10:55:08;;;;;;;2.97;1.45;;;;;;;20.17;62.97;96093.34;5012512;28;20222;-73
2021/06/05 10:57:39;;;;;;;3.17;1.65;;;;;;;20.49;62.89;96095.34;4996244;28;20181;-73
2021/06/05 11:00:42;;;;;;;1.85;1.42;;;;;;;20.39;65.02;96094.88;5011748;28;20215;-73
2021/06/05 11:03:09;;;;;;;2.58;1.50;;;;;;;20.56;64.24;96100.66;5027009;28;20207;-73
2021/06/05 11:05:36;;;;;;;2.72;1.58;;;;;;;20.41;64.71;96092.03;5012020;28;20675;-73
2021/06/05 11:08:14;;;;;;;3.70;1.85;;;;;;;20.48;64.09;96087.66;5013480;28;20259;-73
2021/06/05 11:11:01;;;;;;;5.05;1.85;;;;;;;20.20;64.20;96080.56;5027032;28;20271;-74
2021/06/05 11:13:32;;;;;;;4.90;2.42;;;;;;;20.20;65.25;96085.03;4993741;28;20172;-75
2021/06/05 11:16:08;;;;;;;3.00;1.48;;;;;;;19.94;65.93;96080.41;4993619;28;20196;-74
2021/06/05 11:18:43;;;;;;;1.95;1.70;;;;;;;20.56;66.64;96077.75;5005821;28;20209;-74
2021/06/05 11:21:24;;;;;;;2.85;1.77;;;;;;;20.59;65.36;96074.72;5010795;28;20273;-74
2021/06/05 11:23:56;;;;;;;1.67;1.58;;;;;;;20.35;63.76;96078.63;5013109;28;20256;-74
2021/06/05 11:26:39;;;;;;;1.70;1.60;;;;;;;20.58;64.29;96075.75;5013015;28;20179;-75
2021/06/05 11:29:27;;;;;;;1.77;1.55;;;;;;;19.89;65.90;96074.91;5027170;28;20222;-75
2021/06/05 11:31:55;;;;;;;2.47;1.45;;;;;;;20.55;65.08;96076.13;5012741;28;20265;-74
2021/06/05 11:34:29;;;;;;;2.28;1.60;;;;;;;20.31;64.30;96073.94;5011748;28;20199;-75
2021/06/05 11:37:13;;;;;;;2.13;1.80;;;;;;;20.12;64.00;96072.81;5012795;28;20231;-72
2021/06/05 11:39:53;;;;;;;1.58;1.48;;;;;;;19.93;65.46;96071.69;5008992;28;20199;-74
2021/06/05 11:42:21;;;;;;;2.10;1.40;;;;;;;20.12;64.41;96066.72;5010065;28;20691;-73